America — WDE6770 — position and weather

sailwx.info

Track history (hours):
 
Tides and Currents Weather Stations Pressure Air Temp Water Temp Dewpoint Dewpoint Depression Visibility Wind Speed Wind Dir Waves Ship Positions

America

Owner: Foss Maritime Company, Seattle, WA. More information available from US FCC via Universal Licensing System and Coast Guard Vessel Documentation Center.

Last reported at 2018-Jul-20 06:00 UTC. Time now 2018-Jul-20 06:22 UTC.
Position N 37°55' W 122°25'.

Length 30 m; draft 5.2 m.

Type: Tug. MMSI: 367384610.

Date/timePositionNaut miles runAvg speedWind from/ knotsBaromVisibWave heightAir tempDewpointWater temp
2018-Jul-20 06:00N 37°55' W 122°25'0 0.0
2018-Jul-20 05:30N 37°55' W 122°25'0 0.0
2018-Jul-20 05:00N 37°55' W 122°25'0 0.0
2018-Jul-20 04:30N 37°55' W 122°25'0 0.0
2018-Jul-20 04:00N 37°55' W 122°25'0 0.0
2018-Jul-20 03:30N 37°55' W 122°25'0 0.0
2018-Jul-20 02:57N 37°55' W 122°25'0 0.1
2018-Jul-20 02:30N 37°55' W 122°24'0 0.1
2018-Jul-20 02:00N 37°55' W 122°25'0 0.0
2018-Jul-20 01:30N 37°55' W 122°25'0 0.0
2018-Jul-20 01:00N 37°55' W 122°25'0 0.0
2018-Jul-20 00:30N 37°55' W 122°25'0 0.0
2018-Jul-20 00:00N 37°55' W 122°25'0 0.0
2018-Jul-19 23:30N 37°55' W 122°25'0 0.3
2018-Jul-19 23:01N 37°55' W 122°25'0 0.1
2018-Jul-19 22:31N 37°55' W 122°25'2 3.5
2018-Jul-19 22:00N 37°53' W 122°25'5 9.1
2018-Jul-19 21:30N 37°49' W 122°23'4 7.9
2018-Jul-19 21:00N 37°46' W 122°21'2 4.4
2018-Jul-19 20:31N 37°44' W 122°20'2 3.2
2018-Jul-19 20:00N 37°45' W 122°20'4 7.5
2018-Jul-19 19:28N 37°49' W 122°22'0 0.0
2018-Jul-19 18:58N 37°49' W 122°22'0 0.0
2018-Jul-19 18:28N 37°49' W 122°22'0 0.1
2018-Jul-19 17:58N 37°49' W 122°22'0 0.1
2018-Jul-19 17:28N 37°49' W 122°22'2 4.9
2018-Jul-19 17:00N 37°47' W 122°22'2 4.5
2018-Jul-19 16:30N 37°45' W 122°22'0 0.1
2018-Jul-19 16:00N 37°45' W 122°22'0 0.0
2018-Jul-19 15:30N 37°45' W 122°22'1 2.3
2018-Jul-19 15:00N 37°46' W 122°22'3 3.2
2018-Jul-19 14:00N 37°48' W 122°19'1 2.4
2018-Jul-19 13:30N 37°48' W 122°17'1 2.2
2018-Jul-19 13:00N 37°48' W 122°19'3 5.4
2018-Jul-19 12:30N 37°48' W 122°22'1 2.5
2018-Jul-19 12:00N 37°48' W 122°21'0 0.0
2018-Jul-19 11:30N 37°48' W 122°21'0 0.0
2018-Jul-19 11:00N 37°48' W 122°21'0 0.0
2018-Jul-19 10:30N 37°48' W 122°21'0 0.0
2018-Jul-19 10:00N 37°48' W 122°21'1 2.6
2018-Jul-19 09:30N 37°48' W 122°19'0 0.1
2018-Jul-19 09:00N 37°48' W 122°19'0 0.0
2018-Jul-19 08:30N 37°48' W 122°19'0 0.0
2018-Jul-19 08:00N 37°48' W 122°19'0 0.0
2018-Jul-19 07:30N 37°48' W 122°19'0 0.0
2018-Jul-19 07:00N 37°48' W 122°19'4 8.8
2018-Jul-19 06:30N 37°49' W 122°24'4 8.6
2018-Jul-19 06:00N 37°49' W 122°30'0 0.2
2018-Jul-19 05:30N 37°49' W 122°30'5 9.4
2018-Jul-19 05:01N 37°51' W 122°24'2 3.9
2018-Jul-19 04:31N 37°53' W 122°26'2 4.9
2018-Jul-19 04:00N 37°55' W 122°27'5 9.0
2018-Jul-19 03:30N 37°59' W 122°25'510.1
2018-Jul-19 03:00N 38°03' W 122°21'4 7.8
2018-Jul-19 02:30N 38°04' W 122°16'4 7.6
2018-Jul-19 02:00N 38°03' W 122°11'4 6.2
2018-Jul-19 01:24N 38°03' W 122°06'1 1.7
2018-Jul-19 01:00N 38°03' W 122°05'0 0.0
2018-Jul-19 00:29N 38°03' W 122°05'2 1.0
2018-Jul-18 22:28N 38°02' W 122°08'1 2.9
2018-Jul-18 21:59N 38°02' W 122°10'2 4.5
2018-Jul-18 21:28N 38°03' W 122°12'4 8.6
2018-Jul-18 21:00N 38°03' W 122°17'5 9.5
2018-Jul-18 20:30N 38°01' W 122°23'5 9.5
2018-Jul-18 20:00N 37°57' W 122°26'4 7.8
2018-Jul-18 19:30N 37°54' W 122°23'0 0.9
2018-Jul-18 18:58N 37°54' W 122°22'0 0.0
2018-Jul-18 18:28N 37°54' W 122°22'0 0.0
2018-Jul-18 17:58N 37°54' W 122°22'0 0.0
2018-Jul-18 17:22N 37°54' W 122°22'1 2.8
2018-Jul-18 17:00N 37°54' W 122°24'4 7.0
2018-Jul-18 16:30N 37°51' W 122°23'2 4.1
2018-Jul-18 16:00N 37°49' W 122°22'1 1.4
2018-Jul-18 15:30N 37°50' W 122°22'1 2.0
2018-Jul-18 15:00N 37°51' W 122°23'0 0.8
2018-Jul-18 14:30N 37°51' W 122°23'1 0.6
2018-Jul-18 13:30N 37°51' W 122°24'2 4.5
2018-Jul-18 13:00N 37°53' W 122°25'2 4.2
2018-Jul-18 12:30N 37°54' W 122°22'1 1.8
2018-Jul-18 12:00N 37°55' W 122°22'1 1.6
2018-Jul-18 11:30N 37°54' W 122°22'0 0.0
2018-Jul-18 10:27N 37°54' W 122°22'0 0.0
2018-Jul-18 10:00N 37°54' W 122°22'0 0.0
2018-Jul-18 09:30N 37°54' W 122°22'0 0.0
2018-Jul-18 09:00N 37°54' W 122°22'0 0.0
2018-Jul-18 08:30N 37°54' W 122°22'0 0.0
2018-Jul-18 08:00N 37°54' W 122°22'0 0.0
2018-Jul-18 07:30N 37°54' W 122°22'0 0.0
2018-Jul-18 07:00N 37°54' W 122°22'0 0.0
2018-Jul-18 06:30N 37°54' W 122°22'0 0.0
2018-Jul-18 06:00N 37°54' W 122°22'0 0.0
2018-Jul-18 05:30N 37°54' W 122°22'0 0.0
2018-Jul-18 05:00N 37°54' W 122°22'0 0.0
2018-Jul-18 04:30N 37°54' W 122°22'0 0.0
2018-Jul-18 04:00N 37°54' W 122°22'0 0.0
2018-Jul-18 03:30N 37°54' W 122°22'0 0.0
2018-Jul-18 03:00N 37°54' W 122°22'0 0.0
2018-Jul-18 02:30N 37°54' W 122°22'0 0.0
2018-Jul-18 02:00N 37°54' W 122°22'0 0.0
2018-Jul-18 01:30N 37°54' W 122°22'0 0.0
2018-Jul-18 01:00N 37°54' W 122°22'0 0.0
2018-Jul-18 00:30N 37°54' W 122°22'0 0.0
2018-Jul-18 00:00N 37°54' W 122°22'0 0.0
2018-Jul-17 23:30N 37°54' W 122°22'0 0.0
2018-Jul-17 23:00N 37°54' W 122°22'0 0.0
2018-Jul-17 22:30N 37°54' W 122°22'0 0.0
2018-Jul-17 22:00N 37°54' W 122°22'1 1.6
2018-Jul-17 21:30N 37°54' W 122°23'4 8.8
2018-Jul-17 21:00N 37°51' W 122°27'4 7.2
2018-Jul-17 20:31N 37°49' W 122°31'1 2.4
2018-Jul-17 20:00N 37°49' W 122°29'4 8.6
2018-Jul-17 19:31N 37°51' W 122°25'4 8.7
2018-Jul-17 19:01N 37°55' W 122°25'3 5.9
2018-Jul-17 18:31N 37°54' W 122°22'1 1.2
2018-Jul-17 18:00N 37°55' W 122°22'0 0.0
2018-Jul-17 17:30N 37°55' W 122°22'2 4.2
2018-Jul-17 17:00N 37°55' W 122°25'1 2.9
2018-Jul-17 16:30N 37°54' W 122°23'0 0.8
2018-Jul-17 16:00N 37°54' W 122°22'2 4.6
2018-Jul-17 15:30N 37°55' W 122°25'0 0.0
2018-Jul-17 15:00N 37°55' W 122°25'2 3.0
2018-Jul-17 14:31N 37°54' W 122°25'0 0.9
2018-Jul-17 14:00N 37°54' W 122°25'1 2.0
2018-Jul-17 13:30N 37°55' W 122°25'0 0.0
2018-Jul-17 13:00N 37°55' W 122°25'0 0.1
2018-Jul-17 12:30N 37°55' W 122°24'0 0.0
2018-Jul-17 12:00N 37°55' W 122°24'0 0.1
2018-Jul-17 11:30N 37°55' W 122°25'4 8.5
2018-Jul-17 11:00N 37°52' W 122°27'4 8.8
2018-Jul-17 10:30N 37°48' W 122°31'0 0.6
2018-Jul-17 10:00N 37°49' W 122°31'2 3.6
2018-Jul-17 09:30N 37°49' W 122°29'2 4.5
2018-Jul-17 09:00N 37°50' W 122°27'2 4.5
2018-Jul-17 08:30N 37°52' W 122°25'3 5.5
2018-Jul-17 08:00N 37°54' W 122°25'1 2.5
2018-Jul-17 07:31N 37°56' W 122°25'0 0.8
2018-Jul-17 07:01N 37°55' W 122°25'0 0.6
2018-Jul-17 06:30N 37°55' W 122°25'1 1.4
2018-Jul-17 06:00N 37°55' W 122°24'2 2.9
2018-Jul-17 05:29N 37°54' W 122°22'0 0.0
2018-Jul-17 04:59N 37°54' W 122°22'0 0.0
2018-Jul-17 04:29N 37°54' W 122°22'0 0.0
2018-Jul-17 03:59N 37°54' W 122°22'2 3.9
2018-Jul-17 03:30N 37°55' W 122°25'611.6
2018-Jul-17 03:00N 38°01' W 122°24'611.5
2018-Jul-17 02:30N 38°03' W 122°18'510.3
2018-Jul-17 02:00N 38°03' W 122°11'4 8.2
2018-Jul-17 01:30N 38°03' W 122°06'0 0.6
2018-Jul-17 01:00N 38°03' W 122°05'0 0.1
2018-Jul-17 00:30N 38°03' W 122°05'4 4.5
2018-Jul-16 23:30N 38°03' W 122°11'713.6
2018-Jul-16 23:00N 38°03' W 122°20'613.2
2018-Jul-16 22:30N 37°58' W 122°26'510.0
2018-Jul-16 22:00N 37°54' W 122°22'1 1.4
2018-Jul-16 21:30N 37°55' W 122°22'0 0.5
2018-Jul-16 21:00N 37°55' W 122°22'2 4.4
2018-Jul-16 20:30N 37°55' W 122°25'1 1.3
2018-Jul-16 20:00N 37°55' W 122°25'0 0.4
2018-Jul-16 19:30N 37°55' W 122°25'0 0.0
2018-Jul-16 18:59N 37°55' W 122°25'0 0.0
2018-Jul-16 18:26N 37°55' W 122°25'0 0.0
2018-Jul-16 17:59N 37°55' W 122°25'0 0.0
2018-Jul-16 17:29N 37°55' W 122°25'0 0.0
2018-Jul-16 16:59N 37°55' W 122°25'0 0.0
2018-Jul-16 16:29N 37°55' W 122°25'0 0.1
2018-Jul-16 15:59N 37°55' W 122°24'0 0.1
2018-Jul-16 15:26N 37°55' W 122°25'0 0.0
2018-Jul-16 14:59N 37°55' W 122°25'0 0.1
2018-Jul-16 14:29N 37°55' W 122°24'0 0.1
2018-Jul-16 13:59N 37°55' W 122°25'0 0.0
2018-Jul-16 13:29N 37°55' W 122°25'0 0.0
2018-Jul-16 12:59N 37°55' W 122°25'0 1.0
2018-Jul-16 12:30N 37°56' W 122°25'0 0.0
2018-Jul-16 12:00N 37°56' W 122°25'0 0.9
2018-Jul-16 11:30N 37°55' W 122°25'2 4.6
2018-Jul-16 11:00N 37°53' W 122°25'2 4.5
2018-Jul-16 10:30N 37°55' W 122°25'0 0.0
2018-Jul-16 10:00N 37°55' W 122°25'0 0.0
2018-Jul-16 09:30N 37°55' W 122°25'0 0.0
2018-Jul-16 09:00N 37°55' W 122°25'0 0.0
2018-Jul-16 08:30N 37°55' W 122°25'0 0.0
2018-Jul-16 08:00N 37°55' W 122°25'0 0.0
2018-Jul-16 07:30N 37°55' W 122°25'0 0.0
2018-Jul-16 07:00N 37°55' W 122°25'0 0.0
2018-Jul-16 06:30N 37°55' W 122°25'1 2.4
2018-Jul-16 06:00N 37°54' W 122°25'1 1.1
2018-Jul-16 05:30N 37°55' W 122°25'1 1.9
2018-Jul-16 05:00N 37°56' W 122°25'0 0.9
2018-Jul-16 04:30N 37°55' W 122°25'0 0.3
2018-Jul-16 04:00N 37°55' W 122°25'0 0.1
2018-Jul-16 03:30N 37°55' W 122°24'0 0.0
2018-Jul-16 03:00N 37°55' W 122°24'0 0.1
2018-Jul-16 02:30N 37°55' W 122°25'0 0.0
2018-Jul-16 02:00N 37°55' W 122°25'0 0.0
2018-Jul-16 01:30N 37°55' W 122°25'0 0.0
2018-Jul-16 01:00N 37°55' W 122°25'0 0.0
2018-Jul-16 00:30N 37°55' W 122°25'0 0.0
2018-Jul-16 00:00N 37°55' W 122°25'2 3.3
2018-Jul-15 23:30N 37°54' W 122°23'1 1.9
2018-Jul-15 23:00N 37°55' W 122°22'1 1.2
2018-Jul-15 22:30N 37°55' W 122°22'0 0.3
2018-Jul-15 22:00N 37°55' W 122°22'1 1.6
2018-Jul-15 21:30N 37°54' W 122°22'0 0.4
2018-Jul-15 21:00N 37°54' W 122°23'3 6.9
2018-Jul-15 20:30N 37°51' W 122°24'5 9.4
2018-Jul-15 20:00N 37°47' W 122°21'3 5.5
2018-Jul-15 19:30N 37°44' W 122°20'4 7.1
2018-Jul-15 19:00N 37°47' W 122°22'510.9
2018-Jul-15 18:30N 37°52' W 122°25'3 6.3
2018-Jul-15 18:00N 37°55' W 122°25'0 0.5
2018-Jul-15 17:30N 37°55' W 122°25'2 3.6
2018-Jul-15 17:00N 37°54' W 122°23'0 0.5
2018-Jul-15 16:27N 37°54' W 122°22'0 0.0
2018-Jul-15 16:00N 37°54' W 122°22'0 0.0
2018-Jul-15 15:30N 37°54' W 122°22'0 0.0
2018-Jul-15 15:00N 37°54' W 122°22'1 1.7
2018-Jul-15 14:31N 37°55' W 122°22'0 0.1
2018-Jul-15 14:01N 37°55' W 122°22'0 0.6
2018-Jul-15 13:30N 37°55' W 122°22'1 1.2
2018-Jul-15 13:00N 37°54' W 122°22'0 0.0
2018-Jul-15 12:30N 37°54' W 122°22'0 0.0
2018-Jul-15 12:00N 37°54' W 122°22'0 0.0
2018-Jul-15 11:30N 37°54' W 122°22'0 0.0
2018-Jul-15 11:00N 37°54' W 122°22'0 0.0
2018-Jul-15 10:30N 37°54' W 122°22'0 0.0
2018-Jul-15 10:00N 37°54' W 122°22'0 0.0
2018-Jul-15 09:30N 37°54' W 122°22'0 0.0
2018-Jul-15 09:00N 37°54' W 122°22'0 0.0
2018-Jul-15 08:30N 37°54' W 122°22'0 0.0
2018-Jul-15 08:00N 37°54' W 122°22'0 0.0
2018-Jul-15 07:30N 37°54' W 122°22'0 0.0
2018-Jul-15 07:00N 37°54' W 122°22'0 0.0
2018-Jul-15 06:30N 37°54' W 122°22'0 0.0
2018-Jul-15 06:00N 37°54' W 122°22'0 0.0
2018-Jul-15 05:30N 37°54' W 122°22'0 0.0
2018-Jul-15 05:00N 37°54' W 122°22'0 0.0
2018-Jul-15 04:30N 37°54' W 122°22'0 0.0
2018-Jul-15 04:00N 37°54' W 122°22'0 0.8
2018-Jul-15 03:30N 37°54' W 122°23'2 3.9
2018-Jul-15 03:00N 37°55' W 122°25'1 1.6
2018-Jul-15 02:30N 37°55' W 122°25'3 7.0
2018-Jul-15 02:00N 37°51' W 122°24'510.9
2018-Jul-15 01:31N 37°46' W 122°22'1 1.7
2018-Jul-15 01:00N 37°46' W 122°21'2 4.0
2018-Jul-15 00:31N 37°48' W 122°22'5 9.6
2018-Jul-15 00:00N 37°52' W 122°24'3 6.5
2018-Jul-14 23:30N 37°55' W 122°25'4 7.7
2018-Jul-14 23:00N 37°59' W 122°25'9 9.9
2018-Jul-14 22:05N 38°04' W 122°15'1 9.9
2018-Jul-14 22:00N 38°04' W 122°14'4 8.9
2018-Jul-14 21:30N 38°02' W 122°09'1 1.5
2018-Jul-14 20:37N 38°02' W 122°07'0 0.0
2018-Jul-14 20:21N 38°02' W 122°07'3 5.5
2018-Jul-14 19:52N 38°03' W 122°11'410.4
2018-Jul-14 19:29N 38°04' W 122°16'2 4.7
2018-Jul-14 18:58N 38°03' W 122°19'4 8.7
2018-Jul-14 18:30N 38°01' W 122°23'510.5
2018-Jul-14 18:00N 37°56' W 122°26'2 2.8
2018-Jul-14 17:28N 37°55' W 122°25'0 0.0
2018-Jul-14 16:58N 37°55' W 122°25'0 0.0
2018-Jul-14 16:28N 37°55' W 122°25'0 0.1
2018-Jul-14 15:58N 37°55' W 122°24'0 0.1
2018-Jul-14 15:28N 37°55' W 122°25'0 0.0
2018-Jul-14 14:58N 37°55' W 122°25'0 0.1
2018-Jul-14 14:28N 37°55' W 122°24'0 0.0
2018-Jul-14 13:28N 37°55' W 122°25'0 0.0
2018-Jul-14 12:58N 37°55' W 122°25'0 0.0
2018-Jul-14 12:28N 37°55' W 122°25'2 3.6
2018-Jul-14 12:00N 37°54' W 122°25'510.4
2018-Jul-14 11:30N 37°49' W 122°21'3 5.4
2018-Jul-14 11:00N 37°48' W 122°19'0 0.7
2018-Jul-14 10:30N 37°48' W 122°18'1 1.1
2018-Jul-14 10:00N 37°48' W 122°18'2 4.4
2018-Jul-14 09:30N 37°48' W 122°20'2 3.7
2018-Jul-14 09:00N 37°49' W 122°23'2 3.9
2018-Jul-14 08:30N 37°49' W 122°20'0 0.0
2018-Jul-14 08:00N 37°49' W 122°20'0 0.0
2018-Jul-14 07:30N 37°49' W 122°20'0 0.0
2018-Jul-14 07:00N 37°49' W 122°20'0 0.0
2018-Jul-14 06:30N 37°49' W 122°20'0 0.0
2018-Jul-14 06:00N 37°49' W 122°20'0 0.0
2018-Jul-14 05:30N 37°49' W 122°20'5 9.2
2018-Jul-14 05:00N 37°44' W 122°21'510.2
2018-Jul-14 04:30N 37°39' W 122°19'510.5
2018-Jul-14 04:00N 37°35' W 122°15'4 7.9
2018-Jul-14 03:30N 37°32' W 122°12'2 3.0
2018-Jul-14 02:58N 37°31' W 122°13'2 4.7
2018-Jul-14 02:30N 37°33' W 122°12'611.1
2018-Jul-14 02:00N 37°36' W 122°17'510.9
2018-Jul-14 01:30N 37°41' W 122°20'511.0
2018-Jul-14 01:00N 37°47' W 122°22'5 9.4
2018-Jul-14 00:30N 37°51' W 122°24'4 8.6
2018-Jul-14 00:00N 37°55' W 122°24'0 0.1
2018-Jul-13 23:29N 37°55' W 122°25'0 0.0
2018-Jul-13 22:59N 37°55' W 122°25'0 0.0
2018-Jul-13 22:29N 37°55' W 122°25'0 0.0
2018-Jul-13 21:59N 37°55' W 122°25'0 0.3
2018-Jul-13 21:30N 37°55' W 122°25'0 0.2
2018-Jul-13 21:00N 37°55' W 122°25'1 1.1
2018-Jul-13 20:30N 37°55' W 122°25'4 7.8
2018-Jul-13 20:00N 37°51' W 122°25'4 8.0
2018-Jul-13 19:30N 37°49' W 122°29'2 3.0
2018-Jul-13 19:00N 37°48' W 122°30'1 1.6
2018-Jul-13 18:30N 37°49' W 122°29'1 3.0
2018-Jul-13 18:00N 37°49' W 122°28'5 9.1
2018-Jul-13 17:30N 37°50' W 122°22'1 1.9
2018-Jul-13 16:56N 37°49' W 122°22'0 0.1
2018-Jul-13 16:29N 37°49' W 122°22'0 0.0
2018-Jul-13 15:59N 37°49' W 122°22'0 0.0
2018-Jul-13 15:26N 37°49' W 122°22'0 0.0
2018-Jul-13 14:59N 37°49' W 122°22'0 0.1
2018-Jul-13 14:30N 37°49' W 122°22'2 1.8
2018-Jul-13 13:30N 37°49' W 122°20'2 3.5
2018-Jul-13 13:00N 37°48' W 122°22'0 0.1
2018-Jul-13 12:30N 37°48' W 122°22'2 3.1
2018-Jul-13 12:00N 37°49' W 122°20'1 1.2
2018-Jul-13 11:31N 37°49' W 122°20'1 2.3
2018-Jul-13 10:59N 37°49' W 122°22'0 0.1
2018-Jul-13 10:29N 37°49' W 122°22'0 0.1
2018-Jul-13 09:59N 37°49' W 122°22'0 0.0
2018-Jul-13 09:29N 37°49' W 122°22'0 0.1
2018-Jul-13 08:59N 37°49' W 122°22'0 0.0
2018-Jul-13 08:29N 37°49' W 122°22'1 2.5
2018-Jul-13 08:00N 37°48' W 122°23'5 9.7
2018-Jul-13 07:30N 37°49' W 122°29'2 3.3
2018-Jul-13 07:00N 37°49' W 122°31'4 7.5
2018-Jul-13 06:30N 37°51' W 122°27'3 6.2
2018-Jul-13 06:00N 37°53' W 122°25'2 3.9
2018-Jul-13 05:31N 37°55' W 122°25'0 0.2
2018-Jul-13 05:00N 37°55' W 122°25'0 0.1
2018-Jul-13 04:30N 37°55' W 122°25'0 0.0
2018-Jul-13 03:58N 37°55' W 122°25'0 0.0
2018-Jul-13 03:28N 37°55' W 122°25'0 0.0
2018-Jul-13 02:58N 37°55' W 122°25'0 0.0
2018-Jul-13 02:28N 37°55' W 122°25'0 0.0
2018-Jul-13 01:58N 37°55' W 122°25'0 0.0
2018-Jul-13 01:28N 37°55' W 122°25'0 0.0
2018-Jul-13 00:58N 37°55' W 122°25'0 0.1
2018-Jul-13 00:28N 37°55' W 122°24'0 0.1
2018-Jul-12 23:58N 37°55' W 122°25'0 0.0
2018-Jul-12 23:28N 37°55' W 122°25'0 0.0
2018-Jul-12 22:58N 37°55' W 122°25'0 0.0
2018-Jul-12 22:28N 37°55' W 122°25'0 0.0
2018-Jul-12 21:58N 37°55' W 122°25'0 0.0
2018-Jul-12 21:28N 37°55' W 122°25'0 0.0
2018-Jul-12 20:58N 37°55' W 122°25'0 0.0
2018-Jul-12 20:28N 37°55' W 122°25'0 0.0
2018-Jul-12 19:58N 37°55' W 122°25'0 0.0
2018-Jul-12 19:28N 37°55' W 122°25'0 0.0
2018-Jul-12 18:58N 37°55' W 122°25'0 0.1
2018-Jul-12 18:28N 37°55' W 122°24'0 0.1
2018-Jul-12 17:58N 37°55' W 122°25'0 0.0
2018-Jul-12 17:28N 37°55' W 122°25'0 0.0
2018-Jul-12 16:58N 37°55' W 122°25'0 0.0
2018-Jul-12 16:28N 37°55' W 122°25'0 0.0
2018-Jul-12 15:58N 37°55' W 122°25'0 0.0
2018-Jul-12 15:28N 37°55' W 122°25'0 0.0
2018-Jul-12 14:55N 37°55' W 122°25'0 0.0
2018-Jul-12 14:28N 37°55' W 122°25'0 0.0
2018-Jul-12 13:58N 37°55' W 122°25'0 0.0
2018-Jul-12 13:28N 37°55' W 122°25'0 0.0
2018-Jul-12 12:58N 37°55' W 122°25'0 0.0
2018-Jul-12 12:30N 37°55' W 122°25'1 1.9
2018-Jul-12 12:00N 37°54' W 122°25'5 9.5
2018-Jul-12 11:30N 37°50' W 122°22'3 6.8
2018-Jul-12 11:00N 37°48' W 122°19'0 0.9
2018-Jul-12 10:30N 37°48' W 122°19'1 2.3
2018-Jul-12 10:00N 37°48' W 122°17'2 4.3
2018-Jul-12 09:30N 37°48' W 122°20'3 5.3
2018-Jul-12 09:00N 37°49' W 122°23'4 8.9
2018-Jul-12 08:30N 37°53' W 122°25'2 4.3
2018-Jul-12 07:59N 37°54' W 122°22'0 0.0
2018-Jul-12 07:29N 37°54' W 122°22'0 0.0
2018-Jul-12 06:56N 37°54' W 122°22'0 0.0
2018-Jul-12 06:23N 37°54' W 122°22'0 0.0
2018-Jul-12 05:59N 37°54' W 122°22'0 0.0
2018-Jul-12 05:29N 37°54' W 122°22'0 0.0
2018-Jul-12 04:56N 37°54' W 122°22'0 0.0
2018-Jul-12 04:26N 37°54' W 122°22'1 1.9
2018-Jul-12 04:00N 37°55' W 122°22'0 0.6
2018-Jul-12 03:30N 37°55' W 122°22'0 0.1
2018-Jul-12 03:00N 37°55' W 122°22'1 1.3
2018-Jul-12 02:30N 37°54' W 122°22'2 4.2
2018-Jul-12 02:00N 37°55' W 122°25'1 2.4
2018-Jul-12 01:30N 37°54' W 122°26'1 1.5
2018-Jul-12 01:00N 37°53' W 122°25'3 6.3
2018-Jul-12 00:30N 37°50' W 122°24'3 6.1
2018-Jul-12 00:00N 37°49' W 122°28'3 5.5
2018-Jul-11 23:30N 37°48' W 122°31'1 2.4
2018-Jul-11 23:00N 37°47' W 122°32'1 1.8
2018-Jul-11 22:30N 37°48' W 122°31'1 1.5
2018-Jul-11 21:59N 37°47' W 122°32'3 6.4
2018-Jul-11 21:30N 37°49' W 122°29'5 9.3
2018-Jul-11 21:00N 37°53' W 122°26'3 5.8
2018-Jul-11 20:30N 37°54' W 122°22'0 0.0
2018-Jul-11 19:58N 37°54' W 122°22'0 0.0
2018-Jul-11 19:28N 37°54' W 122°22'0 0.0
2018-Jul-11 18:58N 37°54' W 122°22'0 0.0
2018-Jul-11 18:28N 37°54' W 122°22'0 0.0
2018-Jul-11 17:58N 37°54' W 122°22'0 0.0
2018-Jul-11 17:22N 37°54' W 122°22'0 0.0
2018-Jul-11 16:58N 37°54' W 122°22'0 0.0
2018-Jul-11 16:28N 37°54' W 122°22'1 1.5
2018-Jul-11 16:00N 37°55' W 122°22'0 0.5
2018-Jul-11 15:29N 37°55' W 122°22'0 0.3
2018-Jul-11 15:00N 37°55' W 122°22'1 1.6
2018-Jul-11 14:29N 37°54' W 122°22'0 0.0
2018-Jul-11 13:59N 37°54' W 122°22'0 0.0
2018-Jul-11 13:29N 37°54' W 122°22'0 0.0
2018-Jul-11 12:59N 37°54' W 122°22'0 0.0
2018-Jul-11 12:29N 37°54' W 122°22'0 0.0
2018-Jul-11 11:59N 37°54' W 122°22'0 0.0
2018-Jul-11 11:29N 37°54' W 122°22'0 0.0
2018-Jul-11 10:59N 37°54' W 122°22'0 0.0
2018-Jul-11 10:29N 37°54' W 122°22'0 0.0
2018-Jul-11 09:59N 37°54' W 122°22'0 0.0
2018-Jul-11 09:29N 37°54' W 122°22'0 0.0
2018-Jul-11 09:00N 37°54' W 122°22'1 1.6
2018-Jul-11 08:30N 37°55' W 122°22'1 2.9
2018-Jul-11 08:00N 37°54' W 122°23'2 3.2
2018-Jul-11 07:30N 37°56' W 122°25'0 0.1
2018-Jul-11 06:59N 37°56' W 122°25'0 0.0
2018-Jul-11 06:24N 37°56' W 122°25'0 0.0
2018-Jul-11 05:54N 37°56' W 122°25'0 0.0
2018-Jul-11 05:30N 37°56' W 122°25'0 0.2
2018-Jul-11 05:00N 37°56' W 122°25'510.3
2018-Jul-11 04:30N 37°51' W 122°27'3 6.8
2018-Jul-11 04:01N 37°49' W 122°31'1 2.5
2018-Jul-11 03:30N 37°49' W 122°29'4 7.3
2018-Jul-11 03:01N 37°51' W 122°25'4 7.6
2018-Jul-11 02:31N 37°55' W 122°25'1 2.0
2018-Jul-11 02:00N 37°55' W 122°25'0 0.0
2018-Jul-11 01:31N 37°56' W 122°25'0 0.8
2018-Jul-11 01:01N 37°55' W 122°25'0 0.3
2018-Jul-11 00:31N 37°55' W 122°25'1 1.4
2018-Jul-11 00:01N 37°55' W 122°25'3 5.1
2018-Jul-10 23:30N 37°53' W 122°26'4 7.3
2018-Jul-10 23:01N 37°50' W 122°28'5 9.7
2018-Jul-10 22:31N 37°54' W 122°25'2 3.1
2018-Jul-10 21:59N 37°55' W 122°25'0 0.0
2018-Jul-10 21:29N 37°55' W 122°25'0 0.0
2018-Jul-10 20:59N 37°55' W 122°25'0 0.0
2018-Jul-10 20:26N 37°55' W 122°25'0 0.0
2018-Jul-10 19:53N 37°55' W 122°25'0 0.0
2018-Jul-10 19:26N 37°55' W 122°25'0 0.0
2018-Jul-10 19:00N 37°55' W 122°25'0 0.9
2018-Jul-10 18:29N 37°56' W 122°25'0 0.4
2018-Jul-10 18:01N 37°55' W 122°25'3 5.9
2018-Jul-10 17:31N 37°53' W 122°25'3 6.5
2018-Jul-10 17:00N 37°50' W 122°28'2 4.0
2018-Jul-10 16:30N 37°49' W 122°30'1 2.2
2018-Jul-10 16:01N 37°49' W 122°31'2 4.3
2018-Jul-10 15:31N 37°49' W 122°29'4 7.8
2018-Jul-10 15:00N 37°53' W 122°26'4 7.5
2018-Jul-10 14:30N 37°54' W 122°22'1 1.7
2018-Jul-10 14:00N 37°55' W 122°22'1 1.8
2018-Jul-10 13:30N 37°54' W 122°22'0 0.1
2018-Jul-10 13:00N 37°54' W 122°22'0 0.9
2018-Jul-10 12:30N 37°54' W 122°22'0 0.1
2018-Jul-10 12:00N 37°54' W 122°22'1 2.1
2018-Jul-10 11:31N 37°54' W 122°23'2 3.6
2018-Jul-10 11:00N 37°54' W 122°25'1 2.4
2018-Jul-10 10:30N 37°53' W 122°25'1 2.9
2018-Jul-10 10:01N 37°54' W 122°25'1 2.1
2018-Jul-10 09:29N 37°55' W 122°25'0 0.0
2018-Jul-10 08:59N 37°55' W 122°25'0 0.0
2018-Jul-10 08:29N 37°55' W 122°25'0 0.1
2018-Jul-10 07:59N 37°55' W 122°24'0 0.1
2018-Jul-10 07:29N 37°55' W 122°25'0 0.0
2018-Jul-10 06:59N 37°55' W 122°25'0 0.0
2018-Jul-10 06:29N 37°55' W 122°25'  
Track history (hours):
 
Tides and Currents Weather Stations Pressure Air Temp Water Temp Dewpoint Dewpoint Depression Visibility Wind Speed Wind Dir Waves Ship Positions

America

Owner: Foss Maritime Company, Seattle, WA. More information available from US FCC via Universal Licensing System and Coast Guard Vessel Documentation Center.

Last reported at 2018-Jul-20 06:00 UTC. Time now 2018-Jul-20 06:22 UTC.
Position N 37°55' W 122°25'.

Length 30 m; draft 5.2 m.

Type: Tug. MMSI: 367384610.

Date/timePositionNaut miles runAvg speedWind from/ knotsBaromVisibWave heightAir tempDewpointWater temp
2018-Jul-20 06:00N 37°55' W 122°25'0 0.0
2018-Jul-20 05:30N 37°55' W 122°25'0 0.0
2018-Jul-20 05:00N 37°55' W 122°25'0 0.0
2018-Jul-20 04:30N 37°55' W 122°25'0 0.0
2018-Jul-20 04:00N 37°55' W 122°25'0 0.0
2018-Jul-20 03:30N 37°55' W 122°25'0 0.0
2018-Jul-20 02:57N 37°55' W 122°25'0 0.1
2018-Jul-20 02:30N 37°55' W 122°24'0 0.1
2018-Jul-20 02:00N 37°55' W 122°25'0 0.0
2018-Jul-20 01:30N 37°55' W 122°25'0 0.0
2018-Jul-20 01:00N 37°55' W 122°25'0 0.0
2018-Jul-20 00:30N 37°55' W 122°25'0 0.0
2018-Jul-20 00:00N 37°55' W 122°25'0 0.0
2018-Jul-19 23:30N 37°55' W 122°25'0 0.3
2018-Jul-19 23:01N 37°55' W 122°25'0 0.1
2018-Jul-19 22:31N 37°55' W 122°25'2 3.5
2018-Jul-19 22:00N 37°53' W 122°25'5 9.1
2018-Jul-19 21:30N 37°49' W 122°23'4 7.9
2018-Jul-19 21:00N 37°46' W 122°21'2 4.4
2018-Jul-19 20:31N 37°44' W 122°20'2 3.2
2018-Jul-19 20:00N 37°45' W 122°20'4 7.5
2018-Jul-19 19:28N 37°49' W 122°22'0 0.0
2018-Jul-19 18:58N 37°49' W 122°22'0 0.0
2018-Jul-19 18:28N 37°49' W 122°22'0 0.1
2018-Jul-19 17:58N 37°49' W 122°22'0 0.1
2018-Jul-19 17:28N 37°49' W 122°22'2 4.9
2018-Jul-19 17:00N 37°47' W 122°22'2 4.5
2018-Jul-19 16:30N 37°45' W 122°22'0 0.1
2018-Jul-19 16:00N 37°45' W 122°22'0 0.0
2018-Jul-19 15:30N 37°45' W 122°22'1 2.3
2018-Jul-19 15:00N 37°46' W 122°22'3 3.2
2018-Jul-19 14:00N 37°48' W 122°19'1 2.4
2018-Jul-19 13:30N 37°48' W 122°17'1 2.2
2018-Jul-19 13:00N 37°48' W 122°19'3 5.4
2018-Jul-19 12:30N 37°48' W 122°22'1 2.5
2018-Jul-19 12:00N 37°48' W 122°21'0 0.0
2018-Jul-19 11:30N 37°48' W 122°21'0 0.0
2018-Jul-19 11:00N 37°48' W 122°21'0 0.0
2018-Jul-19 10:30N 37°48' W 122°21'0 0.0
2018-Jul-19 10:00N 37°48' W 122°21'1 2.6
2018-Jul-19 09:30N 37°48' W 122°19'0 0.1
2018-Jul-19 09:00N 37°48' W 122°19'0 0.0
2018-Jul-19 08:30N 37°48' W 122°19'0 0.0
2018-Jul-19 08:00N 37°48' W 122°19'0 0.0
2018-Jul-19 07:30N 37°48' W 122°19'0 0.0
2018-Jul-19 07:00N 37°48' W 122°19'4 8.8
2018-Jul-19 06:30N 37°49' W 122°24'4 8.6
2018-Jul-19 06:00N 37°49' W 122°30'0 0.2
2018-Jul-19 05:30N 37°49' W 122°30'5 9.4
2018-Jul-19 05:01N 37°51' W 122°24'2 3.9
2018-Jul-19 04:31N 37°53' W 122°26'2 4.9
2018-Jul-19 04:00N 37°55' W 122°27'5 9.0
2018-Jul-19 03:30N 37°59' W 122°25'510.1
2018-Jul-19 03:00N 38°03' W 122°21'4 7.8
2018-Jul-19 02:30N 38°04' W 122°16'4 7.6
2018-Jul-19 02:00N 38°03' W 122°11'4 6.2
2018-Jul-19 01:24N 38°03' W 122°06'1 1.7
2018-Jul-19 01:00N 38°03' W 122°05'0 0.0
2018-Jul-19 00:29N 38°03' W 122°05'2 1.0
2018-Jul-18 22:28N 38°02' W 122°08'1 2.9
2018-Jul-18 21:59N 38°02' W 122°10'2 4.5
2018-Jul-18 21:28N 38°03' W 122°12'4 8.6
2018-Jul-18 21:00N 38°03' W 122°17'5 9.5
2018-Jul-18 20:30N 38°01' W 122°23'5 9.5
2018-Jul-18 20:00N 37°57' W 122°26'4 7.8
2018-Jul-18 19:30N 37°54' W 122°23'0 0.9
2018-Jul-18 18:58N 37°54' W 122°22'0 0.0
2018-Jul-18 18:28N 37°54' W 122°22'0 0.0
2018-Jul-18 17:58N 37°54' W 122°22'0 0.0
2018-Jul-18 17:22N 37°54' W 122°22'1 2.8
2018-Jul-18 17:00N 37°54' W 122°24'4 7.0
2018-Jul-18 16:30N 37°51' W 122°23'2 4.1
2018-Jul-18 16:00N 37°49' W 122°22'1 1.4
2018-Jul-18 15:30N 37°50' W 122°22'1 2.0
2018-Jul-18 15:00N 37°51' W 122°23'0 0.8
2018-Jul-18 14:30N 37°51' W 122°23'1 0.6
2018-Jul-18 13:30N 37°51' W 122°24'2 4.5
2018-Jul-18 13:00N 37°53' W 122°25'2 4.2
2018-Jul-18 12:30N 37°54' W 122°22'1 1.8
2018-Jul-18 12:00N 37°55' W 122°22'1 1.6
2018-Jul-18 11:30N 37°54' W 122°22'0 0.0
2018-Jul-18 10:27N 37°54' W 122°22'0 0.0
2018-Jul-18 10:00N 37°54' W 122°22'0 0.0
2018-Jul-18 09:30N 37°54' W 122°22'0 0.0
2018-Jul-18 09:00N 37°54' W 122°22'0 0.0
2018-Jul-18 08:30N 37°54' W 122°22'0 0.0
2018-Jul-18 08:00N 37°54' W 122°22'0 0.0
2018-Jul-18 07:30N 37°54' W 122°22'0 0.0
2018-Jul-18 07:00N 37°54' W 122°22'0 0.0
2018-Jul-18 06:30N 37°54' W 122°22'0 0.0
2018-Jul-18 06:00N 37°54' W 122°22'0 0.0
2018-Jul-18 05:30N 37°54' W 122°22'0 0.0
2018-Jul-18 05:00N 37°54' W 122°22'0 0.0
2018-Jul-18 04:30N 37°54' W 122°22'0 0.0
2018-Jul-18 04:00N 37°54' W 122°22'0 0.0
2018-Jul-18 03:30N 37°54' W 122°22'0 0.0
2018-Jul-18 03:00N 37°54' W 122°22'0 0.0
2018-Jul-18 02:30N 37°54' W 122°22'0 0.0
2018-Jul-18 02:00N 37°54' W 122°22'0 0.0
2018-Jul-18 01:30N 37°54' W 122°22'0 0.0
2018-Jul-18 01:00N 37°54' W 122°22'0 0.0
2018-Jul-18 00:30N 37°54' W 122°22'0 0.0
2018-Jul-18 00:00N 37°54' W 122°22'0 0.0
2018-Jul-17 23:30N 37°54' W 122°22'0 0.0
2018-Jul-17 23:00N 37°54' W 122°22'0 0.0
2018-Jul-17 22:30N 37°54' W 122°22'0 0.0
2018-Jul-17 22:00N 37°54' W 122°22'1 1.6
2018-Jul-17 21:30N 37°54' W 122°23'4 8.8
2018-Jul-17 21:00N 37°51' W 122°27'4 7.2
2018-Jul-17 20:31N 37°49' W 122°31'1 2.4
2018-Jul-17 20:00N 37°49' W 122°29'4 8.6
2018-Jul-17 19:31N 37°51' W 122°25'4 8.7
2018-Jul-17 19:01N 37°55' W 122°25'3 5.9
2018-Jul-17 18:31N 37°54' W 122°22'1 1.2
2018-Jul-17 18:00N 37°55' W 122°22'0 0.0
2018-Jul-17 17:30N 37°55' W 122°22'2 4.2
2018-Jul-17 17:00N 37°55' W 122°25'1 2.9
2018-Jul-17 16:30N 37°54' W 122°23'0 0.8
2018-Jul-17 16:00N 37°54' W 122°22'2 4.6
2018-Jul-17 15:30N 37°55' W 122°25'0 0.0
2018-Jul-17 15:00N 37°55' W 122°25'2 3.0
2018-Jul-17 14:31N 37°54' W 122°25'0 0.9
2018-Jul-17 14:00N 37°54' W 122°25'1 2.0
2018-Jul-17 13:30N 37°55' W 122°25'0 0.0
2018-Jul-17 13:00N 37°55' W 122°25'0 0.1
2018-Jul-17 12:30N 37°55' W 122°24'0 0.0
2018-Jul-17 12:00N 37°55' W 122°24'0 0.1
2018-Jul-17 11:30N 37°55' W 122°25'4 8.5
2018-Jul-17 11:00N 37°52' W 122°27'4 8.8
2018-Jul-17 10:30N 37°48' W 122°31'0 0.6
2018-Jul-17 10:00N 37°49' W 122°31'2 3.6
2018-Jul-17 09:30N 37°49' W 122°29'2 4.5
2018-Jul-17 09:00N 37°50' W 122°27'2 4.5
2018-Jul-17 08:30N 37°52' W 122°25'3 5.5
2018-Jul-17 08:00N 37°54' W 122°25'1 2.5
2018-Jul-17 07:31N 37°56' W 122°25'0 0.8
2018-Jul-17 07:01N 37°55' W 122°25'0 0.6
2018-Jul-17 06:30N 37°55' W 122°25'1 1.4
2018-Jul-17 06:00N 37°55' W 122°24'2 2.9
2018-Jul-17 05:29N 37°54' W 122°22'0 0.0
2018-Jul-17 04:59N 37°54' W 122°22'0 0.0
2018-Jul-17 04:29N 37°54' W 122°22'0 0.0
2018-Jul-17 03:59N 37°54' W 122°22'2 3.9
2018-Jul-17 03:30N 37°55' W 122°25'611.6
2018-Jul-17 03:00N 38°01' W 122°24'611.5
2018-Jul-17 02:30N 38°03' W 122°18'510.3
2018-Jul-17 02:00N 38°03' W 122°11'4 8.2
2018-Jul-17 01:30N 38°03' W 122°06'0 0.6
2018-Jul-17 01:00N 38°03' W 122°05'0 0.1
2018-Jul-17 00:30N 38°03' W 122°05'4 4.5
2018-Jul-16 23:30N 38°03' W 122°11'713.6
2018-Jul-16 23:00N 38°03' W 122°20'613.2
2018-Jul-16 22:30N 37°58' W 122°26'510.0
2018-Jul-16 22:00N 37°54' W 122°22'1 1.4
2018-Jul-16 21:30N 37°55' W 122°22'0 0.5
2018-Jul-16 21:00N 37°55' W 122°22'2 4.4
2018-Jul-16 20:30N 37°55' W 122°25'1 1.3
2018-Jul-16 20:00N 37°55' W 122°25'0 0.4
2018-Jul-16 19:30N 37°55' W 122°25'0 0.0
2018-Jul-16 18:59N 37°55' W 122°25'0 0.0
2018-Jul-16 18:26N 37°55' W 122°25'0 0.0
2018-Jul-16 17:59N 37°55' W 122°25'0 0.0
2018-Jul-16 17:29N 37°55' W 122°25'0 0.0
2018-Jul-16 16:59N 37°55' W 122°25'0 0.0
2018-Jul-16 16:29N 37°55' W 122°25'0 0.1
2018-Jul-16 15:59N 37°55' W 122°24'0 0.1
2018-Jul-16 15:26N 37°55' W 122°25'0 0.0
2018-Jul-16 14:59N 37°55' W 122°25'0 0.1
2018-Jul-16 14:29N 37°55' W 122°24'0 0.1
2018-Jul-16 13:59N 37°55' W 122°25'0 0.0
2018-Jul-16 13:29N 37°55' W 122°25'0 0.0
2018-Jul-16 12:59N 37°55' W 122°25'0 1.0
2018-Jul-16 12:30N 37°56' W 122°25'0 0.0
2018-Jul-16 12:00N 37°56' W 122°25'0 0.9
2018-Jul-16 11:30N 37°55' W 122°25'2 4.6
2018-Jul-16 11:00N 37°53' W 122°25'2 4.5
2018-Jul-16 10:30N 37°55' W 122°25'0 0.0
2018-Jul-16 10:00N 37°55' W 122°25'0 0.0
2018-Jul-16 09:30N 37°55' W 122°25'0 0.0
2018-Jul-16 09:00N 37°55' W 122°25'0 0.0
2018-Jul-16 08:30N 37°55' W 122°25'0 0.0
2018-Jul-16 08:00N 37°55' W 122°25'0 0.0
2018-Jul-16 07:30N 37°55' W 122°25'0 0.0
2018-Jul-16 07:00N 37°55' W 122°25'0 0.0
2018-Jul-16 06:30N 37°55' W 122°25'1 2.4
2018-Jul-16 06:00N 37°54' W 122°25'1 1.1
2018-Jul-16 05:30N 37°55' W 122°25'1 1.9
2018-Jul-16 05:00N 37°56' W 122°25'0 0.9
2018-Jul-16 04:30N 37°55' W 122°25'0 0.3
2018-Jul-16 04:00N 37°55' W 122°25'0 0.1
2018-Jul-16 03:30N 37°55' W 122°24'0 0.0
2018-Jul-16 03:00N 37°55' W 122°24'0 0.1
2018-Jul-16 02:30N 37°55' W 122°25'0 0.0
2018-Jul-16 02:00N 37°55' W 122°25'0 0.0
2018-Jul-16 01:30N 37°55' W 122°25'0 0.0
2018-Jul-16 01:00N 37°55' W 122°25'0 0.0
2018-Jul-16 00:30N 37°55' W 122°25'0 0.0
2018-Jul-16 00:00N 37°55' W 122°25'2 3.3
2018-Jul-15 23:30N 37°54' W 122°23'1 1.9
2018-Jul-15 23:00N 37°55' W 122°22'1 1.2
2018-Jul-15 22:30N 37°55' W 122°22'0 0.3
2018-Jul-15 22:00N 37°55' W 122°22'1 1.6
2018-Jul-15 21:30N 37°54' W 122°22'0 0.4
2018-Jul-15 21:00N 37°54' W 122°23'3 6.9
2018-Jul-15 20:30N 37°51' W 122°24'5 9.4
2018-Jul-15 20:00N 37°47' W 122°21'3 5.5
2018-Jul-15 19:30N 37°44' W 122°20'4 7.1
2018-Jul-15 19:00N 37°47' W 122°22'510.9
2018-Jul-15 18:30N 37°52' W 122°25'3 6.3
2018-Jul-15 18:00N 37°55' W 122°25'0 0.5
2018-Jul-15 17:30N 37°55' W 122°25'2 3.6
2018-Jul-15 17:00N 37°54' W 122°23'0 0.5
2018-Jul-15 16:27N 37°54' W 122°22'0 0.0
2018-Jul-15 16:00N 37°54' W 122°22'0 0.0
2018-Jul-15 15:30N 37°54' W 122°22'0 0.0
2018-Jul-15 15:00N 37°54' W 122°22'1 1.7
2018-Jul-15 14:31N 37°55' W 122°22'0 0.1
2018-Jul-15 14:01N 37°55' W 122°22'0 0.6
2018-Jul-15 13:30N 37°55' W 122°22'1 1.2
2018-Jul-15 13:00N 37°54' W 122°22'0 0.0
2018-Jul-15 12:30N 37°54' W 122°22'0 0.0
2018-Jul-15 12:00N 37°54' W 122°22'0 0.0
2018-Jul-15 11:30N 37°54' W 122°22'0 0.0
2018-Jul-15 11:00N 37°54' W 122°22'0 0.0
2018-Jul-15 10:30N 37°54' W 122°22'0 0.0
2018-Jul-15 10:00N 37°54' W 122°22'0 0.0
2018-Jul-15 09:30N 37°54' W 122°22'0 0.0
2018-Jul-15 09:00N 37°54' W 122°22'0 0.0
2018-Jul-15 08:30N 37°54' W 122°22'0 0.0
2018-Jul-15 08:00N 37°54' W 122°22'0 0.0
2018-Jul-15 07:30N 37°54' W 122°22'0 0.0
2018-Jul-15 07:00N 37°54' W 122°22'0 0.0
2018-Jul-15 06:30N 37°54' W 122°22'0 0.0
2018-Jul-15 06:00N 37°54' W 122°22'0 0.0
2018-Jul-15 05:30N 37°54' W 122°22'0 0.0
2018-Jul-15 05:00N 37°54' W 122°22'0 0.0
2018-Jul-15 04:30N 37°54' W 122°22'0 0.0
2018-Jul-15 04:00N 37°54' W 122°22'0 0.8
2018-Jul-15 03:30N 37°54' W 122°23'2 3.9
2018-Jul-15 03:00N 37°55' W 122°25'1 1.6
2018-Jul-15 02:30N 37°55' W 122°25'3 7.0
2018-Jul-15 02:00N 37°51' W 122°24'510.9
2018-Jul-15 01:31N 37°46' W 122°22'1 1.7
2018-Jul-15 01:00N 37°46' W 122°21'2 4.0
2018-Jul-15 00:31N 37°48' W 122°22'5 9.6
2018-Jul-15 00:00N 37°52' W 122°24'3 6.5
2018-Jul-14 23:30N 37°55' W 122°25'4 7.7
2018-Jul-14 23:00N 37°59' W 122°25'9 9.9
2018-Jul-14 22:05N 38°04' W 122°15'1 9.9
2018-Jul-14 22:00N 38°04' W 122°14'4 8.9
2018-Jul-14 21:30N 38°02' W 122°09'1 1.5
2018-Jul-14 20:37N 38°02' W 122°07'0 0.0
2018-Jul-14 20:21N 38°02' W 122°07'3 5.5
2018-Jul-14 19:52N 38°03' W 122°11'410.4
2018-Jul-14 19:29N 38°04' W 122°16'2 4.7
2018-Jul-14 18:58N 38°03' W 122°19'4 8.7
2018-Jul-14 18:30N 38°01' W 122°23'510.5
2018-Jul-14 18:00N 37°56' W 122°26'2 2.8
2018-Jul-14 17:28N 37°55' W 122°25'0 0.0
2018-Jul-14 16:58N 37°55' W 122°25'0 0.0
2018-Jul-14 16:28N 37°55' W 122°25'0 0.1
2018-Jul-14 15:58N 37°55' W 122°24'0 0.1
2018-Jul-14 15:28N 37°55' W 122°25'0 0.0
2018-Jul-14 14:58N 37°55' W 122°25'0 0.1
2018-Jul-14 14:28N 37°55' W 122°24'0 0.0
2018-Jul-14 13:28N 37°55' W 122°25'0 0.0
2018-Jul-14 12:58N 37°55' W 122°25'0 0.0
2018-Jul-14 12:28N 37°55' W 122°25'2 3.6
2018-Jul-14 12:00N 37°54' W 122°25'510.4
2018-Jul-14 11:30N 37°49' W 122°21'3 5.4
2018-Jul-14 11:00N 37°48' W 122°19'0 0.7
2018-Jul-14 10:30N 37°48' W 122°18'1 1.1
2018-Jul-14 10:00N 37°48' W 122°18'2 4.4
2018-Jul-14 09:30N 37°48' W 122°20'2 3.7
2018-Jul-14 09:00N 37°49' W 122°23'2 3.9
2018-Jul-14 08:30N 37°49' W 122°20'0 0.0
2018-Jul-14 08:00N 37°49' W 122°20'0 0.0
2018-Jul-14 07:30N 37°49' W 122°20'0 0.0
2018-Jul-14 07:00N 37°49' W 122°20'0 0.0
2018-Jul-14 06:30N 37°49' W 122°20'0 0.0
2018-Jul-14 06:00N 37°49' W 122°20'0 0.0
2018-Jul-14 05:30N 37°49' W 122°20'5 9.2
2018-Jul-14 05:00N 37°44' W 122°21'510.2
2018-Jul-14 04:30N 37°39' W 122°19'510.5
2018-Jul-14 04:00N 37°35' W 122°15'4 7.9
2018-Jul-14 03:30N 37°32' W 122°12'2 3.0
2018-Jul-14 02:58N 37°31' W 122°13'2 4.7
2018-Jul-14 02:30N 37°33' W 122°12'611.1
2018-Jul-14 02:00N 37°36' W 122°17'510.9
2018-Jul-14 01:30N 37°41' W 122°20'511.0
2018-Jul-14 01:00N 37°47' W 122°22'5 9.4
2018-Jul-14 00:30N 37°51' W 122°24'4 8.6
2018-Jul-14 00:00N 37°55' W 122°24'0 0.1
2018-Jul-13 23:29N 37°55' W 122°25'0 0.0
2018-Jul-13 22:59N 37°55' W 122°25'0 0.0
2018-Jul-13 22:29N 37°55' W 122°25'0 0.0
2018-Jul-13 21:59N 37°55' W 122°25'0 0.3
2018-Jul-13 21:30N 37°55' W 122°25'0 0.2
2018-Jul-13 21:00N 37°55' W 122°25'1 1.1
2018-Jul-13 20:30N 37°55' W 122°25'4 7.8
2018-Jul-13 20:00N 37°51' W 122°25'4 8.0
2018-Jul-13 19:30N 37°49' W 122°29'2 3.0
2018-Jul-13 19:00N 37°48' W 122°30'1 1.6
2018-Jul-13 18:30N 37°49' W 122°29'1 3.0
2018-Jul-13 18:00N 37°49' W 122°28'5 9.1
2018-Jul-13 17:30N 37°50' W 122°22'1 1.9
2018-Jul-13 16:56N 37°49' W 122°22'0 0.1
2018-Jul-13 16:29N 37°49' W 122°22'0 0.0
2018-Jul-13 15:59N 37°49' W 122°22'0 0.0
2018-Jul-13 15:26N 37°49' W 122°22'0 0.0
2018-Jul-13 14:59N 37°49' W 122°22'0 0.1
2018-Jul-13 14:30N 37°49' W 122°22'2 1.8
2018-Jul-13 13:30N 37°49' W 122°20'2 3.5
2018-Jul-13 13:00N 37°48' W 122°22'0 0.1
2018-Jul-13 12:30N 37°48' W 122°22'2 3.1
2018-Jul-13 12:00N 37°49' W 122°20'1 1.2
2018-Jul-13 11:31N 37°49' W 122°20'1 2.3
2018-Jul-13 10:59N 37°49' W 122°22'0 0.1
2018-Jul-13 10:29N 37°49' W 122°22'0 0.1
2018-Jul-13 09:59N 37°49' W 122°22'0 0.0
2018-Jul-13 09:29N 37°49' W 122°22'0 0.1
2018-Jul-13 08:59N 37°49' W 122°22'0 0.0
2018-Jul-13 08:29N 37°49' W 122°22'1 2.5
2018-Jul-13 08:00N 37°48' W 122°23'5 9.7
2018-Jul-13 07:30N 37°49' W 122°29'2 3.3
2018-Jul-13 07:00N 37°49' W 122°31'4 7.5
2018-Jul-13 06:30N 37°51' W 122°27'3 6.2
2018-Jul-13 06:00N 37°53' W 122°25'2 3.9
2018-Jul-13 05:31N 37°55' W 122°25'0 0.2
2018-Jul-13 05:00N 37°55' W 122°25'0 0.1
2018-Jul-13 04:30N 37°55' W 122°25'0 0.0
2018-Jul-13 03:58N 37°55' W 122°25'0 0.0
2018-Jul-13 03:28N 37°55' W 122°25'0 0.0
2018-Jul-13 02:58N 37°55' W 122°25'0 0.0
2018-Jul-13 02:28N 37°55' W 122°25'0 0.0
2018-Jul-13 01:58N 37°55' W 122°25'0 0.0
2018-Jul-13 01:28N 37°55' W 122°25'0 0.0
2018-Jul-13 00:58N 37°55' W 122°25'0 0.1
2018-Jul-13 00:28N 37°55' W 122°24'0 0.1
2018-Jul-12 23:58N 37°55' W 122°25'0 0.0
2018-Jul-12 23:28N 37°55' W 122°25'0 0.0
2018-Jul-12 22:58N 37°55' W 122°25'0 0.0
2018-Jul-12 22:28N 37°55' W 122°25'0 0.0
2018-Jul-12 21:58N 37°55' W 122°25'0 0.0
2018-Jul-12 21:28N 37°55' W 122°25'0 0.0
2018-Jul-12 20:58N 37°55' W 122°25'0 0.0
2018-Jul-12 20:28N 37°55' W 122°25'0 0.0
2018-Jul-12 19:58N 37°55' W 122°25'0 0.0
2018-Jul-12 19:28N 37°55' W 122°25'0 0.0
2018-Jul-12 18:58N 37°55' W 122°25'0 0.1
2018-Jul-12 18:28N 37°55' W 122°24'0 0.1
2018-Jul-12 17:58N 37°55' W 122°25'0 0.0
2018-Jul-12 17:28N 37°55' W 122°25'0 0.0
2018-Jul-12 16:58N 37°55' W 122°25'0 0.0
2018-Jul-12 16:28N 37°55' W 122°25'0 0.0
2018-Jul-12 15:58N 37°55' W 122°25'0 0.0
2018-Jul-12 15:28N 37°55' W 122°25'0 0.0
2018-Jul-12 14:55N 37°55' W 122°25'0 0.0
2018-Jul-12 14:28N 37°55' W 122°25'0 0.0
2018-Jul-12 13:58N 37°55' W 122°25'0 0.0
2018-Jul-12 13:28N 37°55' W 122°25'0 0.0
2018-Jul-12 12:58N 37°55' W 122°25'0 0.0
2018-Jul-12 12:30N 37°55' W 122°25'1 1.9
2018-Jul-12 12:00N 37°54' W 122°25'5 9.5
2018-Jul-12 11:30N 37°50' W 122°22'3 6.8
2018-Jul-12 11:00N 37°48' W 122°19'0 0.9
2018-Jul-12 10:30N 37°48' W 122°19'1 2.3
2018-Jul-12 10:00N 37°48' W 122°17'2 4.3
2018-Jul-12 09:30N 37°48' W 122°20'3 5.3
2018-Jul-12 09:00N 37°49' W 122°23'4 8.9
2018-Jul-12 08:30N 37°53' W 122°25'2 4.3
2018-Jul-12 07:59N 37°54' W 122°22'0 0.0
2018-Jul-12 07:29N 37°54' W 122°22'0 0.0
2018-Jul-12 06:56N 37°54' W 122°22'0 0.0
2018-Jul-12 06:23N 37°54' W 122°22'0 0.0
2018-Jul-12 05:59N 37°54' W 122°22'0 0.0
2018-Jul-12 05:29N 37°54' W 122°22'0 0.0
2018-Jul-12 04:56N 37°54' W 122°22'0 0.0
2018-Jul-12 04:26N 37°54' W 122°22'1 1.9
2018-Jul-12 04:00N 37°55' W 122°22'0 0.6
2018-Jul-12 03:30N 37°55' W 122°22'0 0.1
2018-Jul-12 03:00N 37°55' W 122°22'1 1.3
2018-Jul-12 02:30N 37°54' W 122°22'2 4.2
2018-Jul-12 02:00N 37°55' W 122°25'1 2.4
2018-Jul-12 01:30N 37°54' W 122°26'1 1.5
2018-Jul-12 01:00N 37°53' W 122°25'3 6.3
2018-Jul-12 00:30N 37°50' W 122°24'3 6.1
2018-Jul-12 00:00N 37°49' W 122°28'3 5.5
2018-Jul-11 23:30N 37°48' W 122°31'1 2.4
2018-Jul-11 23:00N 37°47' W 122°32'1 1.8
2018-Jul-11 22:30N 37°48' W 122°31'1 1.5
2018-Jul-11 21:59N 37°47' W 122°32'3 6.4
2018-Jul-11 21:30N 37°49' W 122°29'5 9.3
2018-Jul-11 21:00N 37°53' W 122°26'3 5.8
2018-Jul-11 20:30N 37°54' W 122°22'0 0.0
2018-Jul-11 19:58N 37°54' W 122°22'0 0.0
2018-Jul-11 19:28N 37°54' W 122°22'0 0.0
2018-Jul-11 18:58N 37°54' W 122°22'0 0.0
2018-Jul-11 18:28N 37°54' W 122°22'0 0.0
2018-Jul-11 17:58N 37°54' W 122°22'0 0.0
2018-Jul-11 17:22N 37°54' W 122°22'0 0.0
2018-Jul-11 16:58N 37°54' W 122°22'0 0.0
2018-Jul-11 16:28N 37°54' W 122°22'1 1.5
2018-Jul-11 16:00N 37°55' W 122°22'0 0.5
2018-Jul-11 15:29N 37°55' W 122°22'0 0.3
2018-Jul-11 15:00N 37°55' W 122°22'1 1.6
2018-Jul-11 14:29N 37°54' W 122°22'0 0.0
2018-Jul-11 13:59N 37°54' W 122°22'0 0.0
2018-Jul-11 13:29N 37°54' W 122°22'0 0.0
2018-Jul-11 12:59N 37°54' W 122°22'0 0.0
2018-Jul-11 12:29N 37°54' W 122°22'0 0.0
2018-Jul-11 11:59N 37°54' W 122°22'0 0.0
2018-Jul-11 11:29N 37°54' W 122°22'0 0.0
2018-Jul-11 10:59N 37°54' W 122°22'0 0.0
2018-Jul-11 10:29N 37°54' W 122°22'0 0.0
2018-Jul-11 09:59N 37°54' W 122°22'0 0.0
2018-Jul-11 09:29N 37°54' W 122°22'0 0.0
2018-Jul-11 09:00N 37°54' W 122°22'1 1.6
2018-Jul-11 08:30N 37°55' W 122°22'1 2.9
2018-Jul-11 08:00N 37°54' W 122°23'2 3.2
2018-Jul-11 07:30N 37°56' W 122°25'0 0.1
2018-Jul-11 06:59N 37°56' W 122°25'0 0.0
2018-Jul-11 06:24N 37°56' W 122°25'0 0.0
2018-Jul-11 05:54N 37°56' W 122°25'0 0.0
2018-Jul-11 05:30N 37°56' W 122°25'0 0.2
2018-Jul-11 05:00N 37°56' W 122°25'510.3
2018-Jul-11 04:30N 37°51' W 122°27'3 6.8
2018-Jul-11 04:01N 37°49' W 122°31'1 2.5
2018-Jul-11 03:30N 37°49' W 122°29'4 7.3
2018-Jul-11 03:01N 37°51' W 122°25'4 7.6
2018-Jul-11 02:31N 37°55' W 122°25'1 2.0
2018-Jul-11 02:00N 37°55' W 122°25'0 0.0
2018-Jul-11 01:31N 37°56' W 122°25'0 0.8
2018-Jul-11 01:01N 37°55' W 122°25'0 0.3
2018-Jul-11 00:31N 37°55' W 122°25'1 1.4
2018-Jul-11 00:01N 37°55' W 122°25'3 5.1
2018-Jul-10 23:30N 37°53' W 122°26'4 7.3
2018-Jul-10 23:01N 37°50' W 122°28'5 9.7
2018-Jul-10 22:31N 37°54' W 122°25'2 3.1
2018-Jul-10 21:59N 37°55' W 122°25'0 0.0
2018-Jul-10 21:29N 37°55' W 122°25'0 0.0
2018-Jul-10 20:59N 37°55' W 122°25'0 0.0
2018-Jul-10 20:26N 37°55' W 122°25'0 0.0
2018-Jul-10 19:53N 37°55' W 122°25'0 0.0
2018-Jul-10 19:26N 37°55' W 122°25'0 0.0
2018-Jul-10 19:00N 37°55' W 122°25'0 0.9
2018-Jul-10 18:29N 37°56' W 122°25'0 0.4
2018-Jul-10 18:01N 37°55' W 122°25'3 5.9
2018-Jul-10 17:31N 37°53' W 122°25'3 6.5
2018-Jul-10 17:00N 37°50' W 122°28'2 4.0
2018-Jul-10 16:30N 37°49' W 122°30'1 2.2
2018-Jul-10 16:01N 37°49' W 122°31'2 4.3
2018-Jul-10 15:31N 37°49' W 122°29'4 7.8
2018-Jul-10 15:00N 37°53' W 122°26'4 7.5
2018-Jul-10 14:30N 37°54' W 122°22'1 1.7
2018-Jul-10 14:00N 37°55' W 122°22'1 1.8
2018-Jul-10 13:30N 37°54' W 122°22'0 0.1
2018-Jul-10 13:00N 37°54' W 122°22'0 0.9
2018-Jul-10 12:30N 37°54' W 122°22'0 0.1
2018-Jul-10 12:00N 37°54' W 122°22'1 2.1
2018-Jul-10 11:31N 37°54' W 122°23'2 3.6
2018-Jul-10 11:00N 37°54' W 122°25'1 2.4
2018-Jul-10 10:30N 37°53' W 122°25'1 2.9
2018-Jul-10 10:01N 37°54' W 122°25'1 2.1
2018-Jul-10 09:29N 37°55' W 122°25'0 0.0
2018-Jul-10 08:59N 37°55' W 122°25'0 0.0
2018-Jul-10 08:29N 37°55' W 122°25'0 0.1
2018-Jul-10 07:59N 37°55' W 122°24'0 0.1
2018-Jul-10 07:29N 37°55' W 122°25'0 0.0
2018-Jul-10 06:59N 37°55' W 122°25'0 0.0
2018-Jul-10 06:29N 37°55' W 122°25'  

Dump ship's entire track history